createdAt,value
2023-03-31T00:02:13.850Z,94074.03
2023-03-31T00:04:52.626Z,94066.56
2023-03-31T00:07:23.438Z,94068.34
2023-03-31T00:09:50.221Z,94069.06
2023-03-31T00:12:17.177Z,94091.22
2023-03-31T00:14:44.454Z,94063.72
2023-03-31T00:17:12.265Z,94059.53
2023-03-31T00:19:41.874Z,94065.78
2023-03-31T00:22:08.981Z,94064.34
2023-03-31T00:24:35.769Z,94062.94
2023-03-31T00:27:04.275Z,94059.88
2023-03-31T00:29:33.729Z,94057.06
2023-03-31T00:32:00.508Z,94065.00
2023-03-31T00:34:27.632Z,94060.91
2023-03-31T00:36:56.567Z,94056.97
2023-03-31T00:39:24.851Z,94057.97
2023-03-31T00:41:52.204Z,94050.66
2023-03-31T00:44:25.471Z,94057.69
2023-03-31T00:46:56.362Z,94050.00
2023-03-31T00:49:37.519Z,94050.66
2023-03-31T00:52:13.557Z,94044.63
2023-03-31T00:54:42.340Z,94036.25
2023-03-31T00:57:09.939Z,94027.66
2023-03-31T00:59:46.048Z,94028.78
2023-03-31T01:02:14.616Z,94026.63
2023-03-31T01:04:54.933Z,94024.16
2023-03-31T01:07:33.692Z,94022.50
2023-03-31T01:10:03.831Z,94019.22
2023-03-31T01:12:32.789Z,94019.75
2023-03-31T01:15:00.109Z,94014.53
2023-03-31T01:17:30.001Z,94018.34
2023-03-31T01:20:25.911Z,94023.16
2023-03-31T01:23:30.866Z,94020.41
2023-03-31T01:26:03.714Z,94020.19
2023-03-31T01:29:08.932Z,94028.63
2023-03-31T01:32:22.115Z,94031.44
2023-03-31T01:35:26.214Z,94039.56
2023-03-31T01:38:15.372Z,94040.50
2023-03-31T01:40:41.957Z,94041.84
2023-03-31T01:43:29.417Z,94045.59
2023-03-31T01:46:10.156Z,94050.78
2023-03-31T01:48:39.307Z,94056.72
2023-03-31T01:51:15.557Z,94046.09
2023-03-31T01:53:54.947Z,94057.38
2023-03-31T01:56:36.964Z,94047.34
2023-03-31T01:59:14.593Z,94065.78
2023-03-31T02:01:49.732Z,94058.88
2023-03-31T02:04:16.385Z,94052.94
2023-03-31T02:06:50.211Z,94065.59
2023-03-31T02:09:22.227Z,94061.44
2023-03-31T02:11:50.609Z,94062.69
2023-03-31T02:14:22.518Z,94074.78
2023-03-31T02:16:52.607Z,94081.50
2023-03-31T02:19:21.625Z,94083.44
2023-03-31T02:21:49.956Z,94090.09
2023-03-31T02:24:20.065Z,94096.81
2023-03-31T02:27:03.769Z,94097.91
2023-03-31T02:29:30.888Z,94111.44
2023-03-31T02:32:37.617Z,94105.28
2023-03-31T02:35:07.116Z,94107.88
2023-03-31T02:37:34.422Z,94105.84
2023-03-31T02:40:08.983Z,94123.47
2023-03-31T02:42:35.695Z,94115.13
2023-03-31T02:45:05.436Z,94122.69
2023-03-31T02:47:32.836Z,94114.03
2023-03-31T02:50:01.791Z,94103.19
2023-03-31T02:52:33.603Z,94088.66
2023-03-31T02:55:09.034Z,94084.69
2023-03-31T02:58:07.527Z,94076.44
2023-03-31T03:00:52.733Z,94071.72
2023-03-31T03:04:02.317Z,94055.22
2023-03-31T03:06:55.092Z,94057.69
2023-03-31T03:09:59.491Z,94051.34
2023-03-31T03:12:38.120Z,94042.75
2023-03-31T03:15:21.475Z,94035.13
2023-03-31T03:17:49.365Z,94024.88
2023-03-31T03:20:16.407Z,94021.13
2023-03-31T03:22:43.485Z,94027.03
2023-03-31T03:25:13.759Z,94032.13
2023-03-31T03:27:40.932Z,94032.84
2023-03-31T03:30:10.878Z,94032.75
2023-03-31T03:32:37.668Z,94023.88
2023-03-31T03:35:06.192Z,94019.47
2023-03-31T03:37:32.856Z,94025.09
2023-03-31T03:39:59.476Z,94020.06
2023-03-31T03:42:26.073Z,94024.59
2023-03-31T03:44:52.717Z,94020.34
2023-03-31T03:47:19.352Z,93999.50
2023-03-31T03:49:45.974Z,94006.06
2023-03-31T03:52:12.583Z,93993.69
2023-03-31T03:54:39.225Z,94016.47
2023-03-31T03:57:07.385Z,94004.50
2023-03-31T03:59:34.122Z,94011.28
2023-03-31T04:02:00.737Z,94011.13
2023-03-31T04:04:27.373Z,94018.34
2023-03-31T04:06:54.063Z,94022.72
2023-03-31T04:09:20.739Z,94010.97
2023-03-31T04:11:47.415Z,94031.44
2023-03-31T04:14:14.071Z,94028.97
2023-03-31T04:16:40.843Z,94034.75
2023-03-31T04:19:08.503Z,94026.63
2023-03-31T04:21:35.373Z,94026.25
2023-03-31T04:24:04.529Z,94023.34
2023-03-31T04:26:43.309Z,94026.84
2023-03-31T04:29:16.269Z,94030.00
2023-03-31T04:31:43.510Z,94036.53
2023-03-31T04:34:14.507Z,94028.31
2023-03-31T04:36:49.749Z,94020.97
2023-03-31T04:39:18.277Z,94022.53
2023-03-31T04:41:45.542Z,94014.19
2023-03-31T04:44:12.375Z,94013.09
2023-03-31T04:46:39.039Z,94019.00
2023-03-31T04:49:05.975Z,94019.22
2023-03-31T04:51:32.776Z,94020.59
2023-03-31T04:53:59.401Z,94020.16
2023-03-31T04:56:26.783Z,94014.94
2023-03-31T04:58:53.691Z,94011.13
2023-03-31T05:01:20.673Z,93997.16
2023-03-31T05:03:48.173Z,93993.50
2023-03-31T05:06:18.214Z,93978.25
2023-03-31T05:08:45.326Z,93974.13
2023-03-31T05:11:11.966Z,93970.22
2023-03-31T05:13:38.598Z,93971.88
2023-03-31T05:16:14.655Z,93974.53
2023-03-31T05:18:42.039Z,93960.59
2023-03-31T05:21:17.722Z,93959.34
2023-03-31T05:23:45.041Z,93970.59
2023-03-31T05:26:12.182Z,93964.34
2023-03-31T05:28:39.462Z,93964.88
2023-03-31T05:31:07.471Z,93962.88
2023-03-31T05:33:34.980Z,93963.66
2023-03-31T05:36:02.322Z,93956.25
2023-03-31T05:38:31.336Z,93962.34
2023-03-31T05:40:58.342Z,93966.03
2023-03-31T05:43:25.236Z,93957.16
2023-03-31T05:45:51.936Z,93949.88
2023-03-31T05:48:18.740Z,93953.75
2023-03-31T05:50:45.935Z,93950.19
2023-03-31T05:53:12.576Z,93961.22
2023-03-31T05:55:39.560Z,93952.91
2023-03-31T05:58:06.946Z,93961.28
2023-03-31T06:00:34.056Z,93957.59
2023-03-31T06:03:00.734Z,93960.94
2023-03-31T06:05:27.806Z,93967.59
2023-03-31T06:07:54.411Z,93970.63
2023-03-31T06:10:21.094Z,93982.47
2023-03-31T06:12:47.779Z,93978.56
2023-03-31T06:15:14.472Z,93972.44
2023-03-31T06:17:41.310Z,93970.75
2023-03-31T06:20:23.944Z,93971.41
2023-03-31T06:22:53.709Z,93966.81
2023-03-31T06:25:20.381Z,93967.94
2023-03-31T06:27:47.042Z,93969.44
2023-03-31T06:30:13.812Z,93963.47
2023-03-31T06:32:40.590Z,93962.25
2023-03-31T06:35:07.572Z,93971.44
2023-03-31T06:37:34.226Z,93980.91
2023-03-31T06:40:00.856Z,93967.75
2023-03-31T06:42:27.507Z,93972.16
2023-03-31T06:44:55.839Z,93968.59
2023-03-31T06:47:22.586Z,93967.53
2023-03-31T06:49:49.593Z,93975.13
2023-03-31T06:52:16.589Z,93983.28
2023-03-31T06:54:43.333Z,93985.31
2023-03-31T06:57:10.129Z,93984.94
2023-03-31T06:59:36.906Z,93977.63
2023-03-31T07:02:04.082Z,93979.00
2023-03-31T07:04:30.685Z,93970.06
2023-03-31T07:06:59.148Z,93967.53
2023-03-31T07:09:25.793Z,93957.09
2023-03-31T07:11:52.360Z,93945.59
2023-03-31T07:14:19.019Z,93937.22
2023-03-31T07:16:45.854Z,93916.06
2023-03-31T07:19:12.837Z,93929.38
2023-03-31T07:21:39.491Z,93933.84
2023-03-31T07:24:06.333Z,93927.19
2023-03-31T07:26:33.326Z,93912.13
2023-03-31T07:29:00.426Z,93918.03
2023-03-31T07:31:27.131Z,93921.50
2023-03-31T07:33:53.741Z,93927.06
2023-03-31T07:36:21.231Z,93928.72
2023-03-31T07:38:49.719Z,93933.84
2023-03-31T07:41:21.266Z,93921.31
2023-03-31T07:43:49.438Z,93914.94
2023-03-31T07:46:18.579Z,93910.06
2023-03-31T07:48:46.706Z,93906.31
2023-03-31T07:51:18.549Z,93912.16
2023-03-31T07:53:46.075Z,93920.00
2023-03-31T07:56:13.285Z,93929.97
2023-03-31T07:58:40.067Z,93932.03
2023-03-31T08:01:08.075Z,93917.59
2023-03-31T08:03:34.963Z,93906.75
2023-03-31T08:06:02.237Z,93904.63
2023-03-31T08:08:28.868Z,93912.16
2023-03-31T08:10:55.533Z,93903.22
2023-03-31T08:13:22.179Z,93883.69
2023-03-31T08:15:48.879Z,93890.13
2023-03-31T08:18:16.592Z,93892.81
2023-03-31T08:20:43.208Z,93895.84
2023-03-31T08:23:11.619Z,93884.44
2023-03-31T08:25:38.671Z,93873.31
2023-03-31T08:28:06.925Z,93880.09
2023-03-31T08:30:33.693Z,93871.78
2023-03-31T08:33:00.607Z,93873.44
2023-03-31T08:35:27.315Z,93869.66
2023-03-31T08:37:53.937Z,93872.34
2023-03-31T08:40:26.066Z,93893.13
2023-03-31T08:43:08.811Z,93889.50
2023-03-31T08:45:40.115Z,93891.16
2023-03-31T08:48:37.631Z,93895.63
2023-03-31T08:51:16.559Z,93895.94
2023-03-31T08:53:49.818Z,93884.78
2023-03-31T08:56:20.173Z,93890.63
2023-03-31T08:58:50.103Z,93894.03
2023-03-31T09:01:54.803Z,93875.34
2023-03-31T09:04:59.122Z,93892.06
2023-03-31T09:07:28.535Z,93882.59
2023-03-31T09:10:21.423Z,93877.69
2023-03-31T09:13:02.844Z,93864.66
2023-03-31T09:15:32.747Z,93867.34
2023-03-31T09:18:07.405Z,93855.72
2023-03-31T09:20:41.046Z,93863.13
2023-03-31T09:23:32.793Z,93852.72
2023-03-31T09:26:02.666Z,93855.75
2023-03-31T09:28:39.840Z,93875.03
2023-03-31T09:31:19.801Z,93859.25
2023-03-31T09:33:48.182Z,93871.56
2023-03-31T09:36:17.744Z,93862.66
2023-03-31T09:38:47.060Z,93860.38
2023-03-31T09:41:16.714Z,93859.16
2023-03-31T09:43:46.292Z,93865.81
2023-03-31T09:46:26.448Z,93861.94
2023-03-31T09:49:06.278Z,93858.88
2023-03-31T09:51:37.332Z,93848.09
2023-03-31T09:54:22.362Z,93847.34
2023-03-31T09:56:53.762Z,93842.34
2023-03-31T09:59:21.773Z,93840.78
2023-03-31T10:01:57.016Z,93844.25
2023-03-31T10:04:27.636Z,93840.78
2023-03-31T10:06:55.877Z,93825.00
2023-03-31T10:09:27.528Z,93838.88
2023-03-31T10:12:07.952Z,93833.84
2023-03-31T10:15:02.188Z,93822.53
2023-03-31T10:17:29.285Z,93817.78
2023-03-31T10:20:06.396Z,93812.19
2023-03-31T10:22:33.280Z,93807.22
2023-03-31T10:25:29.221Z,93805.69
2023-03-31T10:27:57.275Z,93805.66
2023-03-31T10:30:28.836Z,93806.50
2023-03-31T10:32:55.487Z,93806.88
2023-03-31T10:35:50.145Z,93795.69
2023-03-31T10:38:27.880Z,93797.69
2023-03-31T10:40:59.132Z,93793.34
2023-03-31T10:43:29.504Z,93789.91
2023-03-31T10:46:00.767Z,93783.28
2023-03-31T10:48:31.395Z,93792.47
2023-03-31T10:51:19.089Z,93780.94
2023-03-31T10:53:48.485Z,93772.09
2023-03-31T10:56:36.650Z,93773.31
2023-03-31T10:59:29.857Z,93778.00
2023-03-31T11:02:33.826Z,93775.97
2023-03-31T11:05:00.926Z,93767.91
2023-03-31T11:07:50.969Z,93765.47
2023-03-31T11:10:43.239Z,93767.56
2023-03-31T11:13:33.858Z,93758.41
2023-03-31T11:16:25.311Z,93759.25
2023-03-31T11:18:54.542Z,93755.91
2023-03-31T11:21:36.625Z,93750.75
2023-03-31T11:24:19.910Z,93751.00
2023-03-31T11:27:00.865Z,93739.38
2023-03-31T11:29:38.298Z,93734.94
2023-03-31T11:32:14.723Z,93734.66
2023-03-31T11:35:09.386Z,93732.50
2023-03-31T11:37:35.897Z,93738.66
2023-03-31T11:40:22.019Z,93728.72
2023-03-31T11:42:55.496Z,93725.69
2023-03-31T11:45:28.526Z,93721.69
2023-03-31T11:48:04.328Z,93726.69
2023-03-31T11:50:40.273Z,93724.94
2023-03-31T11:53:16.492Z,93710.63
2023-03-31T11:55:47.074Z,93693.16
2023-03-31T11:58:21.819Z,93693.81
2023-03-31T12:00:50.693Z,93701.38
2023-03-31T12:03:29.432Z,93696.78
2023-03-31T12:06:02.729Z,93700.00
2023-03-31T12:08:41.855Z,93695.97
2023-03-31T12:11:20.190Z,93696.72
2023-03-31T12:13:56.937Z,93685.78
2023-03-31T12:16:32.404Z,93679.91
2023-03-31T12:19:08.022Z,93690.03
2023-03-31T12:21:38.541Z,93684.66
2023-03-31T12:24:07.179Z,93680.47
2023-03-31T12:26:53.062Z,93682.53
2023-03-31T12:29:52.220Z,93673.22
2023-03-31T12:32:24.056Z,93671.25
2023-03-31T12:35:25.092Z,93681.63
2023-03-31T12:37:57.918Z,93676.38
2023-03-31T12:40:42.622Z,93667.03
2023-03-31T12:43:35.200Z,93662.44
2023-03-31T12:46:07.557Z,93653.84
2023-03-31T12:48:54.866Z,93650.56
2023-03-31T12:51:37.009Z,93633.88
2023-03-31T12:54:18.697Z,93632.59
2023-03-31T12:57:00.916Z,93628.75
2023-03-31T12:59:35.613Z,93623.59
2023-03-31T13:02:21.684Z,93619.69
2023-03-31T13:04:49.720Z,93612.22
2023-03-31T13:07:29.049Z,93610.19
2023-03-31T13:10:17.193Z,93601.06
2023-03-31T13:13:02.756Z,93590.41
2023-03-31T13:15:30.761Z,93576.25
2023-03-31T13:18:03.916Z,93556.19
2023-03-31T13:20:30.713Z,93549.94
2023-03-31T13:23:22.572Z,93550.25
2023-03-31T13:25:51.295Z,93533.97
2023-03-31T13:28:24.412Z,93536.94
2023-03-31T13:30:52.645Z,93527.63
2023-03-31T13:33:58.093Z,93520.69
2023-03-31T13:36:24.981Z,93522.09
2023-03-31T13:39:11.091Z,93512.63
2023-03-31T13:41:46.296Z,93513.09
2023-03-31T13:44:35.576Z,93510.50
2023-03-31T13:47:21.428Z,93500.94
2023-03-31T13:50:32.814Z,93504.97
2023-03-31T13:52:59.439Z,93503.16
2023-03-31T13:55:44.442Z,93492.63
2023-03-31T13:58:25.528Z,93477.28
2023-03-31T14:01:30.682Z,93470.94
2023-03-31T14:04:09.335Z,93468.44
2023-03-31T14:06:41.907Z,93468.06
2023-03-31T14:09:13.669Z,93461.75
2023-03-31T14:11:40.363Z,93464.63
2023-03-31T14:14:11.449Z,93462.28
2023-03-31T14:16:41.731Z,93466.44
2023-03-31T14:19:27.410Z,93468.97
2023-03-31T14:22:09.052Z,93466.25
2023-03-31T14:24:49.396Z,93472.09
2023-03-31T14:27:30.887Z,93464.00
2023-03-31T14:30:13.086Z,93463.06
2023-03-31T14:32:57.804Z,93456.47
2023-03-31T14:35:46.914Z,93443.53
2023-03-31T14:38:19.251Z,93440.88
2023-03-31T14:40:54.530Z,93442.31
2023-03-31T14:43:25.007Z,93437.56
2023-03-31T14:46:06.038Z,93426.66
2023-03-31T14:48:45.310Z,93423.63
2023-03-31T14:51:15.868Z,93418.59
2023-03-31T14:53:43.519Z,93415.56
2023-03-31T14:56:14.838Z,93418.34
2023-03-31T14:58:47.456Z,93415.84
2023-03-31T15:01:23.910Z,93402.31
2023-03-31T15:03:53.210Z,93406.28
2023-03-31T15:06:19.939Z,93411.41
2023-03-31T15:08:46.831Z,93407.19
2023-03-31T15:11:19.467Z,93410.19
2023-03-31T15:14:00.936Z,93416.38
2023-03-31T15:16:44.310Z,93413.97
2023-03-31T15:19:23.477Z,93411.84
2023-03-31T15:22:14.212Z,93419.31
2023-03-31T15:24:41.015Z,93404.53
2023-03-31T15:27:20.550Z,93406.16
2023-03-31T15:29:53.342Z,93412.78
2023-03-31T15:32:36.558Z,93414.78
2023-03-31T15:35:18.732Z,93412.38
2023-03-31T15:37:48.802Z,93410.63
2023-03-31T15:40:31.449Z,93414.22
2023-03-31T15:43:13.407Z,93406.25
2023-03-31T15:45:50.246Z,93408.63
2023-03-31T15:48:24.124Z,93414.84
2023-03-31T15:50:51.901Z,93408.28
2023-03-31T15:53:28.917Z,93403.44
2023-03-31T15:55:59.749Z,93405.06
2023-03-31T15:58:53.046Z,93402.72
2023-03-31T16:01:20.925Z,93406.75
2023-03-31T16:03:47.979Z,93412.56
2023-03-31T16:06:29.220Z,93412.03
2023-03-31T16:09:07.119Z,93400.97
2023-03-31T16:11:37.069Z,93402.00
2023-03-31T16:14:27.410Z,93403.06
2023-03-31T16:17:02.336Z,93397.75
2023-03-31T16:19:39.360Z,93397.50
2023-03-31T16:22:06.317Z,93400.13
2023-03-31T16:24:35.370Z,93406.06
2023-03-31T16:27:06.902Z,93403.56
2023-03-31T16:29:34.835Z,93408.63
2023-03-31T16:32:20.991Z,93397.44
2023-03-31T16:34:59.032Z,93413.91
2023-03-31T16:37:26.318Z,93402.47
2023-03-31T16:39:53.128Z,93414.28
2023-03-31T16:42:20.850Z,93407.28
2023-03-31T16:44:59.957Z,93403.31
2023-03-31T16:50:18.010Z,93403.66
2023-03-31T16:52:45.458Z,93392.19
2023-03-31T16:55:12.307Z,93402.69
2023-03-31T16:57:38.935Z,93397.06
2023-03-31T17:00:06.196Z,93390.28
2023-03-31T17:02:32.897Z,93392.03
2023-03-31T17:07:46.173Z,93385.56
2023-03-31T17:10:13.498Z,93398.41
2023-03-31T17:12:40.659Z,93398.75
2023-03-31T17:15:08.077Z,93408.00
2023-03-31T17:17:34.809Z,93409.28
2023-03-31T17:20:02.294Z,93404.75
2023-03-31T17:22:28.894Z,93405.44
2023-03-31T17:24:58.462Z,93396.88
2023-03-31T17:27:26.141Z,93402.78
2023-03-31T17:29:53.140Z,93392.53
2023-03-31T17:32:20.483Z,93396.91
2023-03-31T17:34:50.543Z,93401.16
2023-03-31T17:37:18.587Z,93399.13
2023-03-31T17:39:45.830Z,93390.06
2023-03-31T17:42:13.385Z,93389.25
2023-03-31T17:44:40.758Z,93394.63
2023-03-31T17:47:07.359Z,93401.38
2023-03-31T17:49:34.094Z,93396.31
2023-03-31T17:52:00.977Z,93392.03
2023-03-31T17:54:27.601Z,93397.81
2023-03-31T17:56:54.523Z,93396.00
2023-03-31T17:59:22.207Z,93396.75
2023-03-31T18:01:49.062Z,93393.66
2023-03-31T18:04:16.276Z,93391.28
2023-03-31T18:06:44.759Z,93401.28
2023-03-31T18:09:12.008Z,93402.06
2023-03-31T18:11:38.835Z,93402.38
2023-03-31T18:14:06.431Z,93399.28
2023-03-31T18:16:33.709Z,93395.94
2023-03-31T18:19:00.782Z,93404.41
2023-03-31T18:21:27.795Z,93392.06
2023-03-31T18:23:55.264Z,93391.22
2023-03-31T18:26:24.247Z,93394.31
2023-03-31T18:28:52.412Z,93386.63
2023-03-31T18:31:21.370Z,93388.59
2023-03-31T18:33:48.517Z,93380.13
2023-03-31T18:36:19.753Z,93378.63
2023-03-31T18:38:47.866Z,93372.75
2023-03-31T18:41:14.849Z,93372.09
2023-03-31T18:43:41.961Z,93372.09
2023-03-31T18:46:08.844Z,93372.88
2023-03-31T18:48:35.614Z,93370.53
2023-03-31T18:51:02.713Z,93370.53
2023-03-31T18:53:30.226Z,93367.03
2023-03-31T18:55:58.926Z,93372.84
2023-03-31T18:58:28.812Z,93366.56
2023-03-31T19:00:56.561Z,93375.41
2023-03-31T19:03:23.839Z,93365.25
2023-03-31T19:05:50.627Z,93373.50
2023-03-31T19:08:17.488Z,93364.31
2023-03-31T19:10:44.160Z,93375.13
2023-03-31T19:13:15.967Z,93375.53
2023-03-31T19:15:42.959Z,93370.34
2023-03-31T19:18:14.753Z,93374.59
2023-03-31T19:20:41.479Z,93368.59
2023-03-31T19:23:08.540Z,93366.22
2023-03-31T19:25:35.283Z,93358.03
2023-03-31T19:28:02.358Z,93354.03
2023-03-31T19:30:29.278Z,93351.16
2023-03-31T19:32:56.130Z,93360.53
2023-03-31T19:35:23.409Z,93355.81
2023-03-31T19:37:51.136Z,93354.34
2023-03-31T19:40:17.797Z,93360.09
2023-03-31T19:42:44.506Z,93360.03
2023-03-31T19:45:11.640Z,93357.47
2023-03-31T19:47:38.554Z,93362.09
2023-03-31T19:50:07.354Z,93364.00
2023-03-31T19:52:34.166Z,93361.38
2023-03-31T19:55:00.809Z,93361.03
2023-03-31T19:57:27.825Z,93359.09
2023-03-31T19:59:54.491Z,93360.06
2023-03-31T20:02:21.372Z,93370.19
2023-03-31T20:04:48.220Z,93359.63
2023-03-31T20:07:14.892Z,93361.16
2023-03-31T20:09:42.412Z,93359.25
2023-03-31T20:12:09.010Z,93364.41
2023-03-31T20:14:35.600Z,93363.44
2023-03-31T20:17:03.306Z,93366.03
2023-03-31T20:19:29.991Z,93359.94
2023-03-31T20:21:57.973Z,93367.16
2023-03-31T20:24:24.951Z,93370.75
2023-03-31T20:26:52.048Z,93360.72
2023-03-31T20:29:18.993Z,93362.69
2023-03-31T20:31:46.119Z,93367.31
2023-03-31T20:34:15.001Z,93367.22
2023-03-31T20:36:43.932Z,93366.03
2023-03-31T20:39:13.227Z,93367.09
2023-03-31T20:41:40.221Z,93356.81
2023-03-31T20:44:11.401Z,93363.78
2023-03-31T20:46:40.997Z,93362.19
2023-03-31T20:49:08.314Z,93364.03
2023-03-31T20:51:39.805Z,93368.25
2023-03-31T20:54:07.777Z,93356.75
2023-03-31T20:56:37.910Z,93362.53
2023-03-31T20:59:08.744Z,93357.06
2023-03-31T21:01:36.837Z,93354.97
2023-03-31T21:04:05.872Z,93365.25
2023-03-31T21:06:38.545Z,93355.25
2023-03-31T21:09:05.898Z,93352.88
2023-03-31T21:11:33.109Z,93349.78
2023-03-31T21:14:00.420Z,93341.81
2023-03-31T21:16:27.280Z,93352.94
2023-03-31T21:18:58.610Z,93346.00
2023-03-31T21:21:26.845Z,93349.91
2023-03-31T21:23:54.421Z,93341.41
2023-03-31T21:26:22.049Z,93341.59
2023-03-31T21:28:54.371Z,93332.69
2023-03-31T21:31:24.253Z,93347.56
2023-03-31T21:33:52.276Z,93342.13
2023-03-31T21:36:22.758Z,93338.22
2023-03-31T21:38:52.093Z,93347.47
2023-03-31T21:41:22.655Z,93334.47
2023-03-31T21:43:51.342Z,93335.25
2023-03-31T21:46:20.370Z,93329.16
2023-03-31T21:48:50.736Z,93334.13
2023-03-31T21:51:19.071Z,93329.94
2023-03-31T21:53:46.107Z,93330.25
2023-03-31T21:56:12.925Z,93330.66
2023-03-31T21:58:39.640Z,93334.59
2023-03-31T22:01:06.586Z,93322.94
2023-03-31T22:03:34.586Z,93323.47
2023-03-31T22:06:03.721Z,93336.47
2023-03-31T22:08:31.664Z,93320.75
2023-03-31T22:11:00.573Z,93311.88
2023-03-31T22:13:29.195Z,93306.84
2023-03-31T22:15:56.413Z,93309.09
2023-03-31T22:18:23.282Z,93316.84
2023-03-31T22:20:50.840Z,93318.19
2023-03-31T22:23:18.182Z,93306.59
2023-03-31T22:25:44.835Z,93305.88
2023-03-31T22:28:12.677Z,93312.31
2023-03-31T22:30:39.546Z,93311.09
2023-03-31T22:33:06.236Z,93311.41
2023-03-31T22:35:33.194Z,93303.38
2023-03-31T22:38:00.046Z,93317.53
2023-03-31T22:40:29.110Z,93313.72
2023-03-31T22:42:57.483Z,93312.53
2023-03-31T22:45:24.213Z,93311.34
2023-03-31T22:47:51.226Z,93307.50
2023-03-31T22:50:18.008Z,93311.34
2023-03-31T22:52:45.518Z,93309.06
2023-03-31T22:55:12.178Z,93300.97
2023-03-31T22:57:39.306Z,93293.41
2023-03-31T23:00:06.595Z,93302.13
2023-03-31T23:02:33.386Z,93302.06
2023-03-31T23:05:00.212Z,93305.13
2023-03-31T23:07:27.628Z,93290.63
2023-03-31T23:09:54.212Z,93292.88
2023-03-31T23:12:20.902Z,93289.72
2023-03-31T23:14:47.474Z,93294.00
2023-03-31T23:17:14.202Z,93299.78
2023-03-31T23:19:40.854Z,93296.72
2023-03-31T23:22:07.472Z,93290.19
2023-03-31T23:24:34.173Z,93285.16
2023-03-31T23:27:00.778Z,93271.69
2023-03-31T23:29:28.156Z,93263.25
2023-03-31T23:31:54.907Z,93265.03
2023-03-31T23:34:21.596Z,93273.59
2023-03-31T23:36:48.545Z,93270.75
2023-03-31T23:39:15.372Z,93262.22
2023-03-31T23:41:42.142Z,93262.13
2023-03-31T23:44:08.884Z,93253.34
2023-03-31T23:46:37.800Z,93250.28
2023-03-31T23:49:05.042Z,93248.38
2023-03-31T23:51:31.630Z,93242.56
2023-03-31T23:53:58.255Z,93236.63
2023-03-31T23:56:25.442Z,93234.31
2023-03-31T23:58:52.127Z,93230.50
